Terminal Aerodrome Forecast
Issued by NWS

Home | Current Version | Previous Version | Text Only | Print | Product List | Glossary On
Versions: 1 2 3 4 5 6 7 8 9 10 11 12 13 14 15
000
FTUS42 KTAE 191732
TAFABY
TAF
KABY 191732Z 1918/2018 27012KT P6SM BKN025 BKN040
      TEMPO 1918/1920 SCT025 BKN040
     FM192000 31010G16KT P6SM SCT040
     FM200000 34005KT P6SM SKC
     FM201500 06014G20KT P6SM SKC=

USA.gov is the U.S. government's official web portal to all federal, state and local government web resources and services.